createdAt,value
2018-10-11T00:01:41.434Z,51.20
2018-10-11T00:04:09.937Z,50.90
2018-10-11T00:06:38.506Z,52.00
2018-10-11T00:09:08.499Z,51.40
2018-10-11T00:11:37.723Z,52.10
2018-10-11T00:14:06.274Z,51.30
2018-10-11T00:16:34.752Z,51.70
2018-10-11T00:19:03.237Z,52.30
2018-10-11T00:21:31.877Z,52.10
2018-10-11T00:24:00.376Z,51.80
2018-10-11T00:26:28.880Z,52.00
2018-10-11T00:28:57.374Z,52.30
2018-10-11T00:31:25.918Z,52.20
2018-10-11T00:33:54.409Z,52.00
2018-10-11T00:36:22.919Z,53.00
2018-10-11T00:38:51.437Z,52.70
2018-10-11T00:41:19.944Z,52.40
2018-10-11T00:43:48.446Z,51.90
2018-10-11T00:46:16.958Z,52.30
2018-10-11T00:48:45.438Z,52.50
2018-10-11T00:51:13.953Z,52.70
2018-10-11T00:53:42.463Z,53.00
2018-10-11T00:56:10.940Z,52.90
2018-10-11T00:58:39.463Z,53.10
2018-10-11T01:01:07.984Z,53.60
2018-10-11T01:03:36.478Z,52.60
2018-10-11T01:06:05.027Z,53.10
2018-10-11T01:08:33.540Z,51.90
2018-10-11T01:11:02.029Z,52.70
2018-10-11T01:13:30.507Z,53.80
2018-10-11T01:15:58.989Z,52.80
2018-10-11T01:18:27.483Z,52.90
2018-10-11T01:20:55.984Z,54.10
2018-10-11T01:23:24.503Z,53.80
2018-10-11T01:25:52.979Z,54.60
2018-10-11T01:28:21.477Z,54.10
2018-10-11T01:30:55.340Z,54.20
2018-10-11T01:33:23.859Z,53.50
2018-10-11T01:35:52.368Z,53.20
2018-10-11T01:38:20.888Z,52.70
2018-10-11T01:40:49.442Z,53.30
2018-10-11T01:43:17.953Z,51.90
2018-10-11T01:45:46.504Z,51.80
2018-10-11T01:48:14.998Z,51.70
2018-10-11T01:50:43.507Z,51.30
2018-10-11T01:53:12.032Z,50.80
2018-10-11T01:55:40.543Z,51.60
2018-10-11T01:58:09.013Z,51.80
2018-10-11T02:00:37.496Z,52.50
2018-10-11T02:03:06.028Z,51.60
2018-10-11T02:05:34.513Z,51.40
2018-10-11T02:08:03.038Z,51.90
2018-10-11T02:10:31.533Z,51.40
2018-10-11T02:13:00.015Z,51.30
2018-10-11T02:15:28.916Z,52.40
2018-10-11T02:17:58.010Z,52.60
2018-10-11T02:20:27.179Z,52.40
2018-10-11T02:22:55.712Z,52.10
2018-10-11T02:25:24.252Z,52.10
2018-10-11T02:27:52.766Z,52.60
2018-10-11T02:30:21.269Z,52.50
2018-10-11T02:32:49.759Z,52.00
2018-10-11T02:35:18.253Z,52.40
2018-10-11T02:37:46.720Z,52.60
2018-10-11T02:40:15.227Z,52.60
2018-10-11T02:42:43.758Z,52.60
2018-10-11T02:45:12.284Z,52.70
2018-10-11T02:47:40.769Z,52.20
2018-10-11T02:50:09.595Z,52.70
2018-10-11T02:52:38.088Z,53.00
2018-10-11T02:55:06.695Z,52.60
2018-10-11T02:57:46.244Z,53.10
2018-10-11T03:00:14.803Z,53.30
2018-10-11T03:02:44.771Z,53.10
2018-10-11T03:05:17.377Z,52.60
2018-10-11T03:07:46.908Z,52.90
2018-10-11T03:10:15.496Z,52.40
2018-10-11T03:12:44.032Z,52.80
2018-10-11T03:15:12.528Z,52.90
2018-10-11T03:17:41.041Z,53.70
2018-10-11T03:20:09.652Z,52.70
2018-10-11T03:22:38.130Z,52.60
2018-10-11T03:25:06.687Z,52.30
2018-10-11T03:27:35.192Z,52.20
2018-10-11T03:30:03.739Z,52.20
2018-10-11T03:32:32.225Z,52.40
2018-10-11T03:35:00.721Z,52.30
2018-10-11T03:37:29.322Z,51.90
2018-10-11T03:39:57.803Z,52.50
2018-10-11T03:42:26.399Z,52.10
2018-10-11T03:44:54.875Z,51.90
2018-10-11T03:47:23.363Z,52.30
2018-10-11T03:49:51.875Z,52.00
2018-10-11T03:52:20.373Z,53.20
2018-10-11T03:54:48.847Z,52.90
2018-10-11T03:57:17.359Z,52.20
2018-10-11T03:59:45.905Z,52.50
2018-10-11T04:02:14.446Z,52.70
2018-10-11T04:04:42.967Z,52.90
2018-10-11T04:07:11.499Z,52.70
2018-10-11T04:09:40.040Z,52.80
2018-10-11T04:12:08.553Z,53.00
2018-10-11T04:14:37.049Z,53.00
2018-10-11T04:17:05.561Z,53.50
2018-10-11T04:19:34.055Z,54.00
2018-10-11T04:22:02.543Z,54.10
2018-10-11T04:24:31.037Z,53.90
2018-10-11T04:26:59.531Z,53.30
2018-10-11T04:29:28.061Z,53.00
2018-10-11T04:31:56.596Z,53.20
2018-10-11T04:34:25.140Z,52.90
2018-10-11T04:36:53.653Z,53.30
2018-10-11T04:39:22.191Z,53.60
2018-10-11T04:41:50.699Z,53.90
2018-10-11T04:44:19.199Z,53.30
2018-10-11T04:46:47.690Z,52.60
2018-10-11T04:49:16.222Z,53.30
2018-10-11T04:51:44.879Z,53.50
2018-10-11T04:54:13.368Z,53.10
2018-10-11T04:56:41.875Z,53.60
2018-10-11T04:59:10.399Z,53.60
2018-10-11T05:01:38.912Z,53.60
2018-10-11T05:04:07.738Z,53.40
2018-10-11T05:06:36.240Z,53.10
2018-10-11T05:09:05.144Z,52.90
2018-10-11T05:11:33.731Z,53.10
2018-10-11T05:14:02.421Z,53.60
2018-10-11T05:16:30.978Z,53.10
2018-10-11T05:19:02.988Z,52.90
2018-10-11T05:21:31.623Z,53.10
2018-10-11T05:24:00.112Z,52.70
2018-10-11T05:26:28.615Z,52.90
2018-10-11T05:28:57.138Z,52.50
2018-10-11T05:31:25.725Z,51.80
2018-10-11T05:33:54.516Z,52.40
2018-10-11T05:36:23.041Z,51.80
2018-10-11T05:38:51.543Z,51.50
2018-10-11T05:41:20.054Z,51.90
2018-10-11T05:43:48.632Z,52.00
2018-10-11T05:46:29.275Z,52.10
2018-10-11T05:48:58.548Z,52.30
2018-10-11T05:51:28.272Z,51.30
2018-10-11T05:53:57.415Z,51.70
2018-10-11T05:56:28.097Z,51.40
2018-10-11T05:58:56.975Z,52.00
2018-10-11T06:01:25.577Z,51.70
2018-10-11T06:03:54.631Z,51.60
2018-10-11T06:06:23.207Z,51.70
2018-10-11T06:08:52.859Z,52.60
2018-10-11T06:11:21.472Z,51.90
2018-10-11T06:13:50.593Z,53.10
2018-10-11T06:16:19.161Z,53.00
2018-10-11T06:18:47.706Z,52.80
2018-10-11T06:21:16.325Z,52.30
2018-10-11T06:23:44.875Z,53.00
2018-10-11T06:26:13.869Z,52.60
2018-10-11T06:28:42.471Z,52.00
2018-10-11T06:31:11.070Z,52.10
2018-10-11T06:33:41.120Z,52.00
2018-10-11T06:36:09.733Z,52.50
2018-10-11T06:38:38.228Z,52.30
2018-10-11T06:41:06.955Z,53.30
2018-10-11T06:43:35.547Z,52.90
2018-10-11T06:46:04.168Z,52.50
2018-10-11T06:48:32.770Z,51.90
2018-10-11T06:51:01.373Z,52.50
2018-10-11T06:53:29.972Z,52.80
2018-10-11T06:55:58.501Z,52.80
2018-10-11T06:58:26.936Z,52.70
2018-10-11T07:00:55.468Z,52.40
2018-10-11T07:03:23.950Z,52.90
2018-10-11T07:05:52.512Z,52.20
2018-10-11T07:08:21.021Z,51.40
2018-10-11T07:10:49.504Z,52.30
2018-10-11T07:13:18.005Z,51.80
2018-10-11T07:15:46.528Z,51.10
2018-10-11T07:18:15.026Z,51.60
2018-10-11T07:20:43.724Z,51.30
2018-10-11T07:23:12.195Z,51.10
2018-10-11T07:25:40.698Z,51.90
2018-10-11T07:28:09.267Z,52.00
2018-10-11T07:30:37.780Z,52.30
2018-10-11T07:33:06.293Z,52.10
2018-10-11T07:35:34.888Z,51.30
2018-10-11T07:38:03.308Z,50.90
2018-10-11T07:40:31.846Z,51.70
2018-10-11T07:43:00.322Z,50.70
2018-10-11T07:45:28.835Z,50.80
2018-10-11T07:47:57.586Z,51.10
2018-10-11T07:50:26.148Z,50.50
2018-10-11T07:52:54.680Z,50.50
2018-10-11T07:55:23.144Z,51.10
2018-10-11T07:57:51.662Z,50.60
2018-10-11T08:00:20.191Z,50.40
2018-10-11T08:02:48.704Z,50.80
2018-10-11T08:05:17.263Z,50.90
2018-10-11T08:07:45.857Z,51.70
2018-10-11T08:10:14.347Z,50.20
2018-10-11T08:12:42.841Z,50.40
2018-10-11T08:15:11.320Z,50.50
2018-10-11T08:17:40.163Z,50.90
2018-10-11T08:20:08.409Z,50.00
2018-10-11T08:22:36.901Z,50.20
2018-10-11T08:25:05.772Z,50.10
2018-10-11T08:27:34.014Z,49.70
2018-10-11T08:30:02.509Z,49.60
2018-10-11T08:32:31.140Z,50.00
2018-10-11T08:34:59.495Z,50.30
2018-10-11T08:37:29.757Z,50.00
2018-10-11T08:39:58.193Z,50.30
2018-10-11T08:42:26.689Z,50.90
2018-10-11T08:44:55.191Z,50.30
2018-10-11T08:47:23.689Z,51.70
2018-10-11T08:49:52.211Z,50.50
2018-10-11T08:52:20.721Z,50.50
2018-10-11T08:54:50.548Z,50.40
2018-10-11T08:57:20.163Z,50.50
2018-10-11T08:59:48.804Z,50.90
2018-10-11T09:02:17.234Z,51.10
2018-10-11T09:04:46.376Z,50.70
2018-10-11T09:07:14.882Z,50.80
2018-10-11T09:09:43.945Z,50.20
2018-10-11T09:12:12.452Z,50.80
2018-10-11T09:14:40.981Z,50.60
2018-10-11T09:17:09.493Z,50.50
2018-10-11T09:19:37.992Z,49.90
2018-10-11T09:22:06.569Z,49.90
2018-10-11T09:24:35.090Z,50.30
2018-10-11T09:27:03.608Z,50.30
2018-10-11T09:29:32.110Z,50.20
2018-10-11T09:32:00.784Z,50.30
2018-10-11T09:34:29.280Z,50.60
2018-10-11T09:36:57.853Z,50.30
2018-10-11T09:39:26.370Z,51.10
2018-10-11T09:41:54.898Z,50.20
2018-10-11T09:44:23.395Z,50.40
2018-10-11T09:46:51.916Z,50.90
2018-10-11T09:49:20.435Z,51.00
2018-10-11T09:51:48.915Z,51.40
2018-10-11T09:54:17.442Z,51.10
2018-10-11T09:57:49.447Z,51.70
2018-10-11T10:00:25.588Z,51.90
2018-10-11T10:02:54.117Z,52.00
2018-10-11T10:05:22.641Z,50.50
2018-10-11T10:07:51.148Z,50.50
2018-10-11T10:10:19.640Z,51.00
2018-10-11T10:12:48.152Z,51.30
2018-10-11T10:15:16.646Z,51.50
2018-10-11T10:17:45.188Z,51.30
2018-10-11T10:20:13.685Z,50.80
2018-10-11T10:22:42.187Z,50.80
2018-10-11T10:25:10.763Z,50.80
2018-10-11T10:27:39.289Z,51.00
2018-10-11T10:30:13.317Z,50.80
2018-10-11T10:32:41.819Z,51.00
2018-10-11T10:35:10.345Z,51.20
2018-10-11T10:37:38.849Z,51.30
2018-10-11T10:40:07.496Z,51.20
2018-10-11T10:42:35.908Z,51.00
2018-10-11T10:45:04.588Z,51.20
2018-10-11T10:47:33.128Z,51.00
2018-10-11T10:50:01.637Z,51.30
2018-10-11T10:52:30.129Z,51.10
2018-10-11T10:54:58.629Z,51.50
2018-10-11T10:57:27.125Z,51.90
2018-10-11T10:59:55.642Z,51.80
2018-10-11T11:02:24.124Z,51.90
2018-10-11T11:04:52.616Z,51.30
2018-10-11T11:07:21.165Z,51.40
2018-10-11T11:09:49.632Z,50.80
2018-10-11T11:12:18.121Z,51.40
2018-10-11T11:14:46.660Z,51.60
2018-10-11T11:17:17.276Z,51.30
2018-10-11T11:19:45.760Z,51.60
2018-10-11T11:22:14.295Z,50.90
2018-10-11T11:24:42.786Z,52.20
2018-10-11T11:27:11.304Z,51.80
2018-10-11T11:29:39.783Z,51.30
2018-10-11T11:32:08.283Z,51.30
2018-10-11T11:34:36.787Z,50.90
2018-10-11T11:37:05.308Z,51.70
2018-10-11T11:39:33.801Z,50.60
2018-10-11T11:42:02.315Z,50.50
2018-10-11T11:44:30.807Z,51.30
2018-10-11T11:46:59.834Z,50.80
2018-10-11T11:49:28.359Z,51.30
2018-10-11T11:51:56.851Z,50.80
2018-10-11T11:54:25.354Z,51.00
2018-10-11T11:56:53.848Z,50.90
2018-10-11T11:59:22.357Z,50.90
2018-10-11T12:01:50.907Z,51.50
2018-10-11T12:04:19.396Z,51.60
2018-10-11T12:06:47.898Z,51.30
2018-10-11T12:09:16.414Z,51.00
2018-10-11T12:11:44.954Z,51.20
2018-10-11T12:14:13.444Z,50.50
2018-10-11T12:16:42.046Z,50.90
2018-10-11T12:19:11.452Z,50.20
2018-10-11T12:21:40.218Z,50.70
2018-10-11T12:24:08.804Z,51.00
2018-10-11T12:26:37.323Z,50.60
2018-10-11T12:29:06.105Z,50.50
2018-10-11T12:31:34.434Z,51.00
2018-10-11T12:34:02.945Z,50.40
2018-10-11T12:36:31.548Z,50.60
2018-10-11T12:38:59.970Z,51.00
2018-10-11T12:41:28.445Z,51.30
2018-10-11T12:43:56.969Z,50.40
2018-10-11T12:46:25.485Z,50.10
2018-10-11T12:48:54.000Z,50.70
2018-10-11T12:51:22.531Z,50.00
2018-10-11T12:53:51.023Z,49.30
2018-10-11T12:56:19.564Z,49.30
2018-10-11T12:58:48.084Z,50.00
2018-10-11T13:01:20.468Z,49.70
2018-10-11T13:03:45.075Z,50.00
2018-10-11T13:06:13.571Z,49.60
2018-10-11T13:08:42.080Z,50.00
2018-10-11T13:11:10.629Z,49.80
2018-10-11T13:13:40.615Z,50.10
2018-10-11T13:16:07.724Z,49.50
2018-10-11T13:18:36.203Z,49.50
2018-10-11T13:21:04.750Z,49.80
2018-10-11T13:23:33.242Z,49.60
2018-10-11T13:26:01.730Z,48.60
2018-10-11T13:28:30.261Z,49.10
2018-10-11T13:30:58.765Z,48.40
2018-10-11T13:33:27.367Z,48.00
2018-10-11T13:35:55.913Z,48.10
2018-10-11T13:38:24.427Z,48.90
2018-10-11T13:40:55.076Z,48.60
2018-10-11T13:43:21.594Z,48.30
2018-10-11T13:45:53.404Z,48.40
2018-10-11T13:48:18.641Z,48.00
2018-10-11T13:50:47.129Z,48.10
2018-10-11T13:53:20.395Z,47.60
2018-10-11T13:55:48.706Z,48.00
2018-10-11T13:58:13.077Z,48.00
2018-10-11T14:00:41.768Z,48.30
2018-10-11T14:03:10.215Z,48.10
2018-10-11T14:05:38.718Z,48.00
2018-10-11T14:08:07.292Z,49.20
2018-10-11T14:10:35.807Z,49.30
2018-10-11T14:13:11.063Z,48.30
2018-10-11T14:15:32.928Z,47.60
2018-10-11T14:18:06.213Z,48.20
2018-10-11T14:20:29.940Z,48.00
2018-10-11T14:22:58.466Z,48.40
2018-10-11T14:25:26.986Z,48.00
2018-10-11T14:27:57.465Z,48.30
2018-10-11T14:30:26.025Z,47.70
2018-10-11T14:32:54.536Z,47.80
2018-10-11T14:35:23.044Z,47.50
2018-10-11T14:37:51.602Z,48.50
2018-10-11T14:40:20.580Z,48.50
2018-10-11T14:42:49.112Z,47.30
2018-10-11T14:45:17.953Z,46.70
2018-10-11T14:47:46.505Z,46.30
2018-10-11T14:50:15.027Z,45.50
2018-10-11T14:52:43.514Z,44.90
2018-10-11T14:55:12.148Z,43.90
2018-10-11T14:57:44.282Z,43.80
2018-10-11T15:00:12.796Z,43.30
2018-10-11T15:02:41.388Z,42.90
2018-10-11T15:05:09.837Z,42.50
2018-10-11T15:07:39.249Z,43.20
2018-10-11T15:10:07.794Z,44.80
2018-10-11T15:12:36.315Z,45.60
2018-10-11T15:15:06.437Z,46.40
2018-10-11T15:17:35.042Z,47.00
2018-10-11T15:20:03.661Z,46.40
2018-10-11T15:22:32.211Z,46.70
2018-10-11T15:25:00.740Z,47.20
2018-10-11T15:27:29.280Z,47.20
2018-10-11T15:29:57.885Z,46.50
2018-10-11T15:32:26.293Z,46.80
2018-10-11T15:34:54.830Z,47.60
2018-10-11T15:37:23.334Z,47.20
2018-10-11T15:39:51.877Z,47.30
2018-10-11T15:42:20.367Z,47.60
2018-10-11T15:44:48.892Z,48.10
2018-10-11T15:47:17.402Z,47.50
2018-10-11T15:49:45.914Z,47.20
2018-10-11T15:52:14.506Z,47.80
2018-10-11T15:54:42.993Z,48.20
2018-10-11T15:57:11.534Z,47.20
2018-10-11T15:59:40.052Z,47.80
2018-10-11T16:02:08.613Z,47.30
2018-10-11T16:04:37.128Z,47.50
2018-10-11T16:07:05.740Z,47.70
2018-10-11T16:09:34.276Z,48.10
2018-10-11T16:12:02.806Z,47.80
2018-10-11T16:14:31.297Z,47.90
2018-10-11T16:16:59.793Z,47.90
2018-10-11T16:19:28.318Z,47.90
2018-10-11T16:21:56.804Z,48.00
2018-10-11T16:24:25.277Z,48.00
2018-10-11T16:26:53.805Z,47.60
2018-10-11T16:29:22.320Z,47.90
2018-10-11T16:31:50.902Z,48.50
2018-10-11T16:34:19.399Z,48.50
2018-10-11T16:36:47.903Z,48.50
2018-10-11T16:39:16.473Z,48.60
2018-10-11T16:41:44.896Z,48.60
2018-10-11T16:44:13.402Z,48.80
2018-10-11T16:46:41.973Z,48.70
2018-10-11T16:49:10.575Z,48.80
2018-10-11T16:51:39.429Z,49.10
2018-10-11T16:54:09.101Z,49.10
2018-10-11T16:56:37.595Z,48.80
2018-10-11T16:59:06.272Z,49.10
2018-10-11T17:01:34.749Z,49.00
2018-10-11T17:04:03.388Z,49.10
2018-10-11T17:06:31.935Z,49.20
2018-10-11T17:09:00.456Z,49.30
2018-10-11T17:11:28.951Z,49.20
2018-10-11T17:13:57.465Z,48.80
2018-10-11T17:16:25.955Z,48.70
2018-10-11T17:18:54.475Z,49.00
2018-10-11T17:21:23.042Z,49.20
2018-10-11T17:23:51.504Z,49.20
2018-10-11T17:26:20.048Z,49.10
2018-10-11T17:28:48.535Z,48.90
2018-10-11T17:31:17.092Z,49.40
2018-10-11T17:33:45.606Z,49.50
2018-10-11T17:36:14.120Z,49.00
2018-10-11T17:38:42.680Z,50.10
2018-10-11T17:41:11.292Z,49.40
2018-10-11T17:43:42.222Z,49.20
2018-10-11T17:46:10.734Z,49.70
2018-10-11T17:48:39.350Z,49.50
2018-10-11T17:51:08.077Z,49.20
2018-10-11T17:53:36.579Z,49.60
2018-10-11T17:56:05.253Z,50.20
2018-10-11T17:58:33.780Z,50.60
2018-10-11T18:01:02.285Z,51.30
2018-10-11T18:03:30.801Z,51.20
2018-10-11T18:05:59.338Z,50.60
2018-10-11T18:08:27.851Z,52.30
2018-10-11T18:10:56.371Z,52.50
2018-10-11T18:13:24.879Z,51.90
2018-10-11T18:15:53.377Z,53.50
2018-10-11T18:18:21.897Z,52.80
2018-10-11T18:20:50.366Z,51.50
2018-10-11T18:23:18.887Z,51.60
2018-10-11T18:25:47.389Z,50.90
2018-10-11T18:28:15.893Z,50.40
2018-10-11T18:30:44.411Z,50.50
2018-10-11T18:33:12.915Z,52.40
2018-10-11T18:35:41.480Z,51.60
2018-10-11T18:38:09.984Z,51.50
2018-10-11T18:40:38.465Z,51.30
2018-10-11T18:43:06.977Z,51.40
2018-10-11T18:45:35.491Z,52.30
2018-10-11T18:48:04.165Z,52.70
2018-10-11T18:50:32.676Z,54.00
2018-10-11T18:53:01.184Z,53.60
2018-10-11T18:55:29.670Z,54.80
2018-10-11T18:57:58.308Z,53.70
2018-10-11T19:00:26.756Z,53.40
2018-10-11T19:02:55.242Z,53.10
2018-10-11T19:05:23.788Z,54.10
2018-10-11T19:07:52.270Z,53.20
2018-10-11T19:10:20.757Z,52.40
2018-10-11T19:12:49.266Z,52.10
2018-10-11T19:15:17.773Z,52.50
2018-10-11T19:17:46.272Z,52.60
2018-10-11T19:20:14.808Z,52.30
2018-10-11T19:22:43.312Z,52.70
2018-10-11T19:25:11.788Z,53.40
2018-10-11T19:27:40.296Z,53.10
2018-10-11T19:30:08.817Z,53.80
2018-10-11T19:32:37.300Z,53.50
2018-10-11T19:35:06.189Z,53.80
2018-10-11T19:37:34.687Z,53.90
2018-10-11T19:40:03.259Z,53.90
2018-10-11T19:42:31.787Z,54.50
2018-10-11T19:45:00.303Z,54.00
2018-10-11T19:47:28.811Z,54.10
2018-10-11T19:49:57.324Z,53.90
2018-10-11T19:52:25.814Z,53.10
2018-10-11T19:54:54.343Z,54.60
2018-10-11T19:57:22.846Z,54.50
2018-10-11T19:59:51.402Z,54.20
2018-10-11T20:02:19.885Z,53.60
2018-10-11T20:04:48.398Z,52.90
2018-10-11T20:07:16.919Z,53.40
2018-10-11T20:09:45.410Z,53.90
2018-10-11T20:12:13.895Z,54.80
2018-10-11T20:14:42.408Z,53.80
2018-10-11T20:17:10.947Z,53.90
2018-10-11T20:19:39.470Z,54.00
2018-10-11T20:22:10.006Z,53.80
2018-10-11T20:24:38.556Z,53.00
2018-10-11T20:27:07.369Z,52.20
2018-10-11T20:29:36.274Z,52.50
2018-10-11T20:32:04.817Z,53.80
2018-10-11T20:34:33.316Z,54.50
2018-10-11T20:37:01.788Z,54.40
2018-10-11T20:39:30.288Z,53.70
2018-10-11T20:41:58.813Z,53.10
2018-10-11T20:44:27.400Z,55.10
2018-10-11T20:46:55.909Z,54.80
2018-10-11T20:49:24.434Z,55.50
2018-10-11T20:51:52.909Z,57.40
2018-10-11T20:54:21.427Z,56.80
2018-10-11T20:56:50.052Z,55.80
2018-10-11T20:59:18.619Z,54.50
2018-10-11T21:01:47.173Z,53.60
2018-10-11T21:04:15.663Z,52.50
2018-10-11T21:06:44.203Z,52.50
2018-10-11T21:09:13.406Z,52.50
2018-10-11T21:11:42.048Z,52.10
2018-10-11T21:14:10.625Z,52.50
2018-10-11T21:16:39.173Z,52.40
2018-10-11T21:19:08.141Z,52.80
2018-10-11T21:21:36.654Z,53.20
2018-10-11T21:24:05.187Z,53.00
2018-10-11T21:26:33.678Z,53.30
2018-10-11T21:29:02.173Z,53.50
2018-10-11T21:31:30.668Z,54.00
2018-10-11T21:33:59.168Z,53.30
2018-10-11T21:36:27.659Z,53.90
2018-10-11T21:38:56.181Z,54.70
2018-10-11T21:41:24.674Z,54.30
2018-10-11T21:43:53.172Z,54.60
2018-10-11T21:46:21.785Z,55.00
2018-10-11T21:48:50.231Z,56.10
2018-10-11T21:51:18.717Z,56.60
2018-10-11T21:53:47.220Z,56.80
2018-10-11T21:56:15.705Z,56.20
2018-10-11T21:58:44.236Z,55.80
2018-10-11T22:01:19.658Z,55.50
2018-10-11T22:03:48.176Z,55.60
2018-10-11T22:06:16.684Z,56.40
2018-10-11T22:08:45.209Z,55.70
2018-10-11T22:11:13.718Z,56.40
2018-10-11T22:13:42.682Z,56.00
2018-10-11T22:16:11.491Z,56.10
2018-10-11T22:18:40.814Z,54.80
2018-10-11T22:21:10.498Z,55.30
2018-10-11T22:23:39.966Z,54.20
2018-10-11T22:26:08.654Z,54.50
2018-10-11T22:28:37.401Z,53.70
2018-10-11T22:31:05.896Z,53.60
2018-10-11T22:33:34.415Z,53.30
2018-10-11T22:36:02.897Z,53.10
2018-10-11T22:38:31.397Z,53.90
2018-10-11T22:40:59.988Z,53.50
2018-10-11T22:43:28.570Z,55.20
2018-10-11T22:45:57.123Z,56.80
2018-10-11T22:48:25.628Z,57.90
2018-10-11T22:50:54.154Z,57.40
2018-10-11T22:53:22.687Z,57.90
2018-10-11T22:55:51.192Z,58.40
2018-10-11T22:58:19.693Z,59.10
2018-10-11T23:00:48.221Z,60.30
2018-10-11T23:03:16.709Z,60.40
2018-10-11T23:05:45.223Z,60.40
2018-10-11T23:08:13.700Z,61.30
2018-10-11T23:10:42.195Z,62.30
2018-10-11T23:13:10.703Z,67.60
2018-10-11T23:15:39.191Z,72.00
2018-10-11T23:18:07.683Z,73.10
2018-10-11T23:20:36.169Z,74.60
2018-10-11T23:23:04.687Z,76.50
2018-10-11T23:25:33.178Z,78.70
2018-10-11T23:28:01.700Z,82.90
2018-10-11T23:30:30.167Z,81.90
2018-10-11T23:32:58.663Z,82.60
2018-10-11T23:35:27.165Z,83.30
2018-10-11T23:37:55.645Z,83.70
2018-10-11T23:40:24.124Z,86.00
2018-10-11T23:42:52.628Z,86.30
2018-10-11T23:45:21.097Z,87.00
2018-10-11T23:47:49.614Z,87.70
2018-10-11T23:50:18.113Z,87.50
2018-10-11T23:52:46.604Z,85.10
2018-10-11T23:55:15.110Z,85.00
2018-10-11T23:57:43.583Z,85.70
